Time;durP1;ratioP1;P1;durP2;ratioP2;P2;SDS_P1;SDS_P2;PMS_P1;PMS_P2;Temp;Humidity;BMP_temperature;BMP_pressure;BME280_temperature;BME280_humidity;BME280_pressure;Samples;Min_cycle;Max_cycle;Signal;HPM_P1;HPM_P2
2023/06/10 00:01:58;;;;;;;8.43;4.47;;;14.30;99.90;;;;;;6158216;23;20013;-81
2023/06/10 00:04:23;;;;;;;9.05;4.30;;;14.30;99.90;;;;;;6158412;23;20071;-81
2023/06/10 00:06:49;;;;;;;5.78;3.90;;;14.20;99.90;;;;;;6185633;23;20449;-81
2023/06/10 00:09:15;;;;;;;6.22;4.13;;;14.20;99.90;;;;;;6185822;23;19997;-81
2023/06/10 00:11:41;;;;;;;6.70;3.80;;;14.20;99.90;;;;;;6158975;23;20016;-81
2023/06/10 00:14:07;;;;;;;7.50;4.00;;;14.20;99.90;;;;;;6158358;23;20029;-80
2023/06/10 00:16:34;;;;;;;7.75;4.40;;;14.20;99.90;;;;;;6158867;23;20024;-81
2023/06/10 00:19:01;;;;;;;9.05;5.00;;;14.20;99.90;;;;;;6158400;23;20036;-81
2023/06/10 00:21:37;;;;;;;9.23;5.13;;;14.20;99.90;;;;;;6158788;23;20035;-80
2023/06/10 00:24:03;;;;;;;;;;;14.10;99.90;;;;;;6158576;23;20005;-83
2023/06/10 00:26:29;;;;;;;;;;;14.10;99.90;;;;;;6186230;23;20242;-83
2023/06/10 00:28:55;;;;;;;9.38;4.82;;;14.10;99.90;;;;;;6185060;23;19908;-80
2023/06/10 00:31:20;;;;;;;7.40;4.15;;;14.10;99.90;;;;;;6157387;23;20023;-80
2023/06/10 00:33:46;;;;;;;8.57;4.55;;;14.00;99.90;;;;;;6158180;23;20576;-81
2023/06/10 00:36:11;;;;;;;7.50;4.10;;;14.00;99.90;;;;;;6155977;23;20012;-80
2023/06/10 00:38:37;;;;;;;7.93;4.47;;;13.90;99.90;;;;;;6157846;23;20104;-80
2023/06/10 00:41:02;;;;;;;9.15;5.00;;;13.90;99.90;;;;;;6157911;23;20609;-81
2023/06/10 00:43:28;;;;;;;8.25;4.07;;;13.90;99.90;;;;;;6157704;23;20096;-80
2023/06/10 00:45:54;;;;;;;8.40;5.60;;;13.80;99.90;;;;;;6183549;23;20004;-80
2023/06/10 00:48:20;;;;;;;7.63;4.25;;;13.70;99.90;;;;;;6157572;23;20416;-81
2023/06/10 00:50:46;;;;;;;8.02;4.57;;;13.80;99.90;;;;;;6157367;23;20083;-81
2023/06/10 00:53:12;;;;;;;7.95;4.22;;;13.70;99.90;;;;;;6183981;23;20459;-81
2023/06/10 00:55:38;;;;;;;4.75;3.75;;;13.70;99.90;;;;;;6178990;23;20015;-81
2023/06/10 00:58:04;;;;;;;8.50;5.38;;;13.70;99.90;;;;;;6155482;23;20023;-81
2023/06/10 01:00:30;;;;;;;5.50;4.35;;;13.70;99.90;;;;;;6154257;23;20005;-80
2023/06/10 01:02:56;;;;;;;8.50;4.60;;;13.60;99.90;;;;;;6155367;23;20008;-81
2023/06/10 01:05:23;;;;;;;8.50;4.22;;;13.60;99.90;;;;;;6157892;23;20008;-81
2023/06/10 01:07:53;;;;;;;9.68;4.70;;;13.60;99.90;;;;;;6157915;23;20012;-81
2023/06/10 01:10:41;;;;;;;7.28;4.53;;;13.60;99.90;;;;;;6157891;23;20039;-81
2023/06/10 01:13:11;;;;;;;7.55;4.30;;;13.50;99.90;;;;;;6182192;23;20331;-81
2023/06/10 01:15:38;;;;;;;7.90;3.47;;;13.50;99.90;;;;;;6157445;23;20001;-81
2023/06/10 01:18:08;;;;;;;6.07;3.75;;;13.40;99.90;;;;;;6157914;23;20012;-82
2023/06/10 01:20:36;;;;;;;6.07;4.07;;;13.40;99.90;;;;;;6166404;23;20056;-81
2023/06/10 01:23:05;;;;;;;9.77;3.42;;;13.40;99.90;;;;;;6158482;23;20020;-80
2023/06/10 01:25:32;;;;;;;7.80;3.22;;;13.30;99.90;;;;;;6184270;23;20004;-82
2023/06/10 01:28:09;;;;;;;6.15;3.47;;;13.30;99.90;;;;;;6157282;23;20362;-81
2023/06/10 01:30:53;;;;;;;5.43;3.75;;;13.30;99.90;;;;;;6156638;23;20394;-81
2023/06/10 01:33:26;;;;;;;6.13;3.00;;;13.30;99.90;;;;;;6156930;23;20457;-81
2023/06/10 01:35:53;;;;;;;7.90;4.13;;;13.20;99.90;;;;;;6183752;23;20001;-81
2023/06/10 01:38:20;;;;;;;4.80;3.75;;;13.20;99.90;;;;;;6157434;23;20008;-82
2023/06/10 01:40:48;;;;;;;7.13;3.75;;;13.20;99.90;;;;;;6157604;23;20441;-81
2023/06/10 01:43:13;;;;;;;7.35;3.20;;;13.20;99.90;;;;;;6157004;23;20075;-81
2023/06/10 01:45:39;;;;;;;7.93;4.45;;;13.20;99.90;;;;;;6156741;23;20055;-81
2023/06/10 01:48:05;;;;;;;6.70;3.65;;;13.20;99.90;;;;;;6183365;23;20028;-80
2023/06/10 01:50:30;;;;;;;3.95;2.78;;;13.20;99.90;;;;;;6156631;23;20124;-81
2023/06/10 01:52:57;;;;;;;4.00;3.25;;;13.10;99.90;;;;;;6156819;23;20008;-81
2023/06/10 01:55:23;;;;;;;8.13;3.83;;;13.00;99.90;;;;;;6157207;23;20001;-80
2023/06/10 01:57:48;;;;;;;5.43;3.20;;;13.00;99.90;;;;;;6157128;23;20055;-82
2023/06/10 02:00:15;;;;;;;4.85;3.58;;;13.00;99.90;;;;;;6155233;23;20088;-81
2023/06/10 02:02:41;;;;;;;4.57;3.15;;;13.00;99.90;;;;;;6156379;23;20186;-82
2023/06/10 02:05:06;;;;;;;5.13;3.15;;;13.00;99.90;;;;;;6156057;23;20013;-81
2023/06/10 02:07:32;;;;;;;6.93;3.35;;;12.90;99.90;;;;;;6156552;23;20012;-81
2023/06/10 02:09:57;;;;;;;4.20;2.97;;;12.90;99.90;;;;;;6182927;23;20009;-80
2023/06/10 02:12:23;;;;;;;7.40;3.10;;;12.90;99.90;;;;;;6181869;23;20067;-81
2023/06/10 02:14:49;;;;;;;6.10;3.03;;;12.80;99.90;;;;;;6182730;23;20008;-81
2023/06/10 02:17:14;;;;;;;7.60;3.58;;;12.80;99.90;;;;;;6156497;23;20047;-81
2023/06/10 02:19:42;;;;;;;6.80;3.92;;;12.80;99.90;;;;;;6155837;23;20011;-81
2023/06/10 02:22:08;;;;;;;6.63;3.22;;;12.70;99.90;;;;;;6156174;23;20012;-81
2023/06/10 02:24:37;;;;;;;5.82;3.88;;;12.70;99.90;;;;;;6156182;23;20370;-81
2023/06/10 02:27:06;;;;;;;3.38;3.08;;;12.70;99.90;;;;;;6156431;23;20427;-80
2023/06/10 02:29:33;;;;;;;4.18;3.05;;;12.60;99.90;;;;;;6182193;23;20012;-80
2023/06/10 02:31:58;;;;;;;4.38;3.03;;;12.50;99.90;;;;;;6155704;23;20024;-80
2023/06/10 02:34:24;;;;;;;7.90;3.30;;;12.60;99.90;;;;;;6155745;23;20008;-79
2023/06/10 02:36:51;;;;;;;6.95;3.47;;;12.50;99.90;;;;;;6155967;23;20005;-79
2023/06/10 02:39:16;;;;;;;4.40;3.13;;;12.50;99.90;;;;;;6182125;23;20362;-81
2023/06/10 02:41:42;;;;;;;7.40;3.35;;;12.50;99.90;;;;;;6155903;23;20063;-80
2023/06/10 02:44:07;;;;;;;3.67;2.90;;;12.50;99.90;;;;;;6181937;23;20156;-80
2023/06/10 02:46:33;;;;;;;4.38;2.60;;;12.50;99.90;;;;;;6156021;23;20088;-81
2023/06/10 02:48:58;;;;;;;6.88;3.03;;;12.50;99.90;;;;;;6182524;23;20076;-81
2023/06/10 02:51:24;;;;;;;4.20;3.35;;;12.50;99.90;;;;;;6182019;23;20001;-81
2023/06/10 02:53:50;;;;;;;11.70;3.25;;;12.50;99.90;;;;;;6156148;23;20005;-81
2023/06/10 02:56:17;;;;;;;3.80;3.08;;;12.50;99.90;;;;;;6157203;23;20195;-81
2023/06/10 02:58:42;;;;;;;8.18;3.03;;;12.50;99.90;;;;;;6163777;23;20005;-80
2023/06/10 03:01:09;;;;;;;4.88;2.80;;;12.50;99.90;;;;;;6155224;23;20072;-81
2023/06/10 03:03:36;;;;;;;6.03;3.10;;;12.50;99.90;;;;;;6154313;23;20006;-81
2023/06/10 03:06:02;;;;;;;7.82;3.25;;;12.50;99.90;;;;;;6154117;23;20062;-81
2023/06/10 03:08:28;;;;;;;6.07;3.15;;;12.50;99.90;;;;;;6180899;23;20021;-80
2023/06/10 03:10:54;;;;;;;4.65;2.83;;;12.50;99.90;;;;;;6154255;23;20008;-81
2023/06/10 03:13:19;;;;;;;8.02;3.65;;;12.50;99.90;;;;;;6154399;23;20382;-82
2023/06/10 03:15:45;;;;;;;6.97;3.55;;;12.40;99.90;;;;;;6169297;23;20029;-82
2023/06/10 03:18:11;;;;;;;5.05;3.00;;;12.40;99.90;;;;;;6156627;23;20002;-81
2023/06/10 03:20:37;;;;;;;3.83;2.35;;;12.30;99.90;;;;;;6156173;23;20023;-81
2023/06/10 03:23:06;;;;;;;5.03;2.78;;;12.30;99.90;;;;;;6154981;23;20033;-81
2023/06/10 03:25:31;;;;;;;5.53;2.88;;;12.40;99.90;;;;;;6156188;23;20025;-81
2023/06/10 03:27:57;;;;;;;2.38;2.17;;;12.40;99.90;;;;;;6154301;23;20071;-80
2023/06/10 03:30:23;;;;;;;3.53;2.55;;;12.40;99.90;;;;;;6180330;23;20013;-82
2023/06/10 03:32:49;;;;;;;6.97;2.60;;;12.40;99.90;;;;;;6154886;23;20335;-81
2023/06/10 03:35:14;;;;;;;2.92;2.05;;;12.40;99.90;;;;;;6154180;23;20005;-82
2023/06/10 03:37:40;;;;;;;4.68;2.53;;;12.40;99.90;;;;;;6181986;23;20074;-82
2023/06/10 03:40:08;;;;;;;4.50;2.65;;;12.50;99.90;;;;;;6154859;23;20008;-81
2023/06/10 03:42:34;;;;;;;3.72;2.33;;;12.50;99.90;;;;;;6154560;23;20008;-82
2023/06/10 03:45:00;;;;;;;6.25;2.15;;;12.50;99.90;;;;;;6154339;23;20175;-81
2023/06/10 03:47:26;;;;;;;3.67;2.42;;;12.50;99.90;;;;;;6155166;23;20001;-82
2023/06/10 03:49:52;;;;;;;6.03;2.78;;;12.50;99.90;;;;;;6154549;23;20423;-82
2023/06/10 03:52:18;;;;;;;4.22;2.15;;;12.60;99.90;;;;;;6155360;23;20037;-81
2023/06/10 03:54:43;;;;;;;3.47;2.20;;;12.60;99.90;;;;;;6162309;23;20028;-81
2023/06/10 03:57:09;;;;;;;6.78;3.15;;;12.60;99.90;;;;;;6173130;23;20028;-80
2023/06/10 03:59:35;;;;;;;5.20;2.95;;;12.60;99.90;;;;;;6173421;23;20063;-81
2023/06/10 04:02:01;;;;;;;4.28;2.53;;;12.70;99.90;;;;;;6171645;23;20068;-83
2023/06/10 04:04:26;;;;;;;3.60;2.50;;;12.70;99.90;;;;;;6172859;23;20000;-83
2023/06/10 04:06:52;;;;;;;2.95;2.10;;;12.70;99.90;;;;;;6174839;23;20004;-83
2023/06/10 04:09:18;;;;;;;5.82;2.47;;;12.70;99.90;;;;;;6199272;23;20004;-83
2023/06/10 04:11:44;;;;;;;6.60;2.78;;;12.70;99.90;;;;;;6170631;23;20031;-83
2023/06/10 04:14:09;;;;;;;4.28;2.38;;;12.80;99.90;;;;;;6169270;23;20032;-82
2023/06/10 04:16:35;;;;;;;7.15;2.58;;;12.80;99.90;;;;;;6172559;23;20005;-82
2023/06/10 04:19:01;;;;;;;9.15;2.97;;;12.80;99.90;;;;;;6198022;23;20001;-82
2023/06/10 04:21:27;;;;;;;5.97;2.80;;;12.80;99.90;;;;;;6171580;23;20495;-82
2023/06/10 04:23:53;;;;;;;5.95;2.42;;;12.80;99.90;;;;;;6170113;23;20012;-81
2023/06/10 04:26:19;;;;;;;5.13;2.47;;;12.90;99.90;;;;;;6196588;23;20073;-82
2023/06/10 04:28:44;;;;;;;8.40;3.13;;;12.90;99.90;;;;;;6164564;23;20063;-81
2023/06/10 04:31:10;;;;;;;5.78;2.22;;;13.00;99.90;;;;;;6194965;23;20354;-81
2023/06/10 04:33:36;;;;;;;5.88;2.35;;;13.10;99.90;;;;;;6165166;23;20009;-81
2023/06/10 04:36:02;;;;;;;6.00;3.15;;;13.10;99.90;;;;;;6170201;23;20072;-81
2023/06/10 04:38:28;;;;;;;7.35;2.33;;;13.20;99.90;;;;;;6172073;23;20036;-83
2023/06/10 04:40:53;;;;;;;9.70;2.38;;;13.20;99.90;;;;;;6171367;23;20016;-81
2023/06/10 04:43:19;;;;;;;8.13;3.63;;;13.30;99.90;;;;;;6165902;23;20346;-82
2023/06/10 04:45:45;;;;;;;5.30;2.78;;;13.40;99.90;;;;;;6162972;23;20350;-82
2023/06/10 04:48:11;;;;;;;6.20;2.97;;;13.50;99.90;;;;;;6166451;23;20046;-81
2023/06/10 04:50:37;;;;;;;5.55;2.35;;;13.50;99.90;;;;;;6167011;23;20454;-82
2023/06/10 04:53:02;;;;;;;7.43;2.70;;;13.60;99.90;;;;;;6166605;23;20009;-82
2023/06/10 04:55:28;;;;;;;4.65;2.60;;;13.60;99.90;;;;;;6164409;23;20092;-81
2023/06/10 04:57:54;;;;;;;4.22;2.67;;;13.70;99.90;;;;;;6171096;23;20013;-82
2023/06/10 05:00:20;;;;;;;5.13;2.00;;;13.80;99.90;;;;;;6173418;23;20573;-82
2023/06/10 05:02:49;;;;;;;11.57;3.63;;;13.90;99.90;;;;;;6173676;23;20040;-81
2023/06/10 05:05:16;;;;;;;7.63;2.70;;;14.10;99.90;;;;;;6173280;23;20060;-83
2023/06/10 05:07:41;;;;;;;2.97;2.28;;;14.10;99.90;;;;;;6173764;23;20001;-83
2023/06/10 05:10:07;;;;;;;8.52;2.33;;;14.20;99.90;;;;;;6175577;23;20012;-82
2023/06/10 05:12:33;;;;;;;4.85;2.17;;;14.30;99.90;;;;;;6174294;23;20016;-83
2023/06/10 05:14:58;;;;;;;9.52;2.45;;;14.30;99.90;;;;;;6177730;23;20009;-82
2023/06/10 05:17:25;;;;;;;4.72;1.92;;;14.30;99.90;;;;;;6168824;23;20454;-82
2023/06/10 05:19:51;;;;;;;5.45;2.00;;;14.40;99.90;;;;;;6157968;23;20017;-82
2023/06/10 05:22:17;;;;;;;5.65;1.65;;;14.40;99.90;;;;;;6183789;23;20005;-81
2023/06/10 05:24:44;;;;;;;4.93;2.88;;;14.50;99.90;;;;;;6155577;23;20040;-81
2023/06/10 05:27:10;;;;;;;4.65;2.00;;;14.50;99.90;;;;;;6157783;23;20005;-81
2023/06/10 05:29:35;;;;;;;3.95;1.45;;;14.60;99.90;;;;;;6155926;23;20343;-81
2023/06/10 05:32:03;;;;;;;3.63;1.80;;;14.70;99.90;;;;;;6162959;23;20005;-80
2023/06/10 05:34:29;;;;;;;4.93;1.95;;;14.70;99.90;;;;;;6192941;23;20005;-82
2023/06/10 05:36:55;;;;;;;5.20;1.50;;;14.90;99.90;;;;;;6186629;23;20450;-82
2023/06/10 05:39:20;;;;;;;6.05;2.25;;;14.90;99.90;;;;;;6159700;23;20016;-81
2023/06/10 05:41:46;;;;;;;7.45;2.05;;;15.10;99.90;;;;;;6159667;23;20008;-80
2023/06/10 05:44:12;;;;;;;5.15;1.63;;;15.20;99.90;;;;;;6158634;23;20005;-82
2023/06/10 05:46:37;;;;;;;4.68;1.60;;;15.30;99.90;;;;;;6159487;23;20022;-80
2023/06/10 05:49:03;;;;;;;6.40;1.65;;;15.50;99.90;;;;;;6159758;23;20088;-81
2023/06/10 05:51:28;;;;;;;7.47;1.80;;;15.60;99.90;;;;;;6159987;23;20013;-80
2023/06/10 05:53:54;;;;;;;6.68;2.47;;;15.80;99.90;;;;;;6157487;23;20407;-80
2023/06/10 05:56:22;;;;;;;6.28;1.85;;;16.00;99.90;;;;;;6156865;23;20001;-80
2023/06/10 05:58:48;;;;;;;6.88;2.15;;;16.10;99.90;;;;;;6156477;23;20346;-80
2023/06/10 06:01:14;;;;;;;4.00;1.77;;;16.30;99.90;;;;;;6154479;23;20164;-82
2023/06/10 06:03:40;;;;;;;4.47;1.75;;;16.40;99.90;;;;;;6185208;23;20359;-81
2023/06/10 06:06:05;;;;;;;4.25;1.50;;;16.40;99.90;;;;;;6166113;23;19997;-81
2023/06/10 06:08:31;;;;;;;3.25;1.92;;;16.50;99.90;;;;;;6163756;23;20005;-81
2023/06/10 06:10:56;;;;;;;5.13;1.80;;;16.60;99.90;;;;;;6190499;23;20088;-85
2023/06/10 06:13:22;;;;;;;4.30;1.48;;;16.80;99.90;;;;;;6162881;23;20052;-84
2023/06/10 06:15:48;;;;;;;9.68;2.13;;;16.90;99.90;;;;;;6193613;23;20025;-83
2023/06/10 06:18:13;;;;;;;6.10;1.73;;;17.10;99.90;;;;;;6155833;23;20005;-80
2023/06/10 06:20:39;;;;;;;7.18;1.98;;;17.20;99.90;;;;;;6156280;23;20468;-80
2023/06/10 06:23:04;;;;;;;4.88;1.73;;;17.40;99.90;;;;;;6156661;23;20005;-80
2023/06/10 06:25:30;;;;;;;8.20;1.75;;;17.50;99.90;;;;;;6155426;23;20005;-82
2023/06/10 06:27:55;;;;;;;4.55;1.70;;;17.70;99.90;;;;;;6155849;23;20024;-82
2023/06/10 06:30:21;;;;;;;5.78;1.92;;;17.80;99.90;;;;;;6153178;23;20314;-83
2023/06/10 06:32:47;;;;;;;5.57;1.80;;;18.00;99.90;;;;;;6155340;23;20036;-84
2023/06/10 06:35:12;;;;;;;5.40;1.48;;;18.20;99.90;;;;;;6155022;23;20005;-81
2023/06/10 06:37:38;;;;;;;4.85;1.48;;;18.30;99.90;;;;;;6181527;23;20358;-81
2023/06/10 06:40:04;;;;;;;6.65;1.77;;;18.50;99.90;;;;;;6155643;23;20005;-82
2023/06/10 06:42:29;;;;;;;6.40;1.60;;;18.60;99.90;;;;;;6156753;23;20009;-84
2023/06/10 06:44:55;;;;;;;3.83;1.60;;;18.70;99.90;;;;;;6156607;23;20040;-83
2023/06/10 06:47:21;;;;;;;6.50;2.00;;;18.70;99.90;;;;;;6157104;23;20012;-82
2023/06/10 06:49:47;;;;;;;6.32;1.40;;;18.90;99.90;;;;;;6156065;23;20081;-81
2023/06/10 06:52:13;;;;;;;4.13;1.45;;;19.00;99.90;;;;;;6156004;23;20465;-81
2023/06/10 06:54:39;;;;;;;4.60;1.90;;;19.10;99.90;;;;;;6156103;23;20016;-85
2023/06/10 06:57:05;;;;;;;4.55;1.98;;;19.20;99.90;;;;;;6160585;23;20009;-80
2023/06/10 06:59:31;;;;;;;5.50;1.92;;;19.10;99.90;;;;;;6158812;23;20001;-80
2023/06/10 07:01:56;;;;;;;5.32;1.80;;;18.90;99.90;;;;;;6184938;23;20072;-80
2023/06/10 07:04:22;;;;;;;7.00;1.77;;;19.20;99.90;;;;;;6184740;23;20005;-81
2023/06/10 07:06:48;;;;;;;7.20;1.60;;;19.30;99.90;;;;;;6158600;23;20001;-79
2023/06/10 07:09:14;;;;;;;4.32;1.92;;;19.50;99.90;;;;;;6185887;23;20009;-84
2023/06/10 07:11:39;;;;;;;6.28;2.08;;;19.50;99.90;;;;;;6159487;23;20094;-84
2023/06/10 07:14:06;;;;;;;4.70;1.75;;;19.40;99.90;;;;;;6159387;23;20001;-79
2023/06/10 07:16:32;;;;;;;4.93;2.15;;;19.50;99.90;;;;;;6159570;23;20005;-85
2023/06/10 07:18:58;;;;;;;7.00;2.25;;;19.70;99.90;;;;;;6184629;23;20005;-83
2023/06/10 07:21:23;;;;;;;4.72;1.90;;;19.80;99.90;;;;;;6158078;23;20387;-82
2023/06/10 07:23:52;;;;;;;5.35;2.05;;;20.00;99.90;;;;;;6155670;23;20005;-82
2023/06/10 07:26:17;;;;;;;5.22;2.53;;;20.10;99.90;;;;;;6158615;23;20008;-83
2023/06/10 07:28:43;;;;;;;6.00;2.30;;;20.20;99.90;;;;;;6184706;23;20036;-82
2023/06/10 07:31:09;;;;;;;3.30;1.77;;;20.30;99.90;;;;;;6189299;23;20013;-83
2023/06/10 07:33:34;;;;;;;4.68;1.65;;;20.50;99.90;;;;;;6165372;23;20016;-81
2023/06/10 07:36:00;;;;;;;4.40;2.08;;;20.60;99.90;;;;;;6164938;23;20036;-82
2023/06/10 07:38:26;;;;;;;8.88;2.40;;;20.70;99.90;;;;;;6164821;23;20016;-81
2023/06/10 07:40:52;;;;;;;5.15;1.55;;;20.80;99.90;;;;;;6167680;23;20001;-81
2023/06/10 07:43:18;;;;;;;4.43;1.95;;;20.90;99.90;;;;;;6166134;23;20013;-79
2023/06/10 07:45:44;;;;;;;7.65;2.45;;;21.10;99.90;;;;;;6193551;23;20060;-85
2023/06/10 07:48:10;;;;;;;6.93;2.55;;;21.30;99.90;;;;;;6195000;23;20024;-81
2023/06/10 07:50:36;;;;;;;5.88;1.92;;;21.30;99.90;;;;;;6169584;23;20005;-82
2023/06/10 07:53:02;;;;;;;5.80;2.10;;;21.40;99.90;;;;;;6198682;23;20009;-87
2023/06/10 07:55:27;;;;;;;5.35;2.75;;;21.40;99.90;;;;;;6165238;23;20032;-82
2023/06/10 07:57:53;;;;;;;7.20;1.85;;;21.40;99.90;;;;;;6163327;23;20005;-80
2023/06/10 08:00:20;;;;;;;4.25;2.15;;;21.50;99.90;;;;;;6162162;23;20016;-81
2023/06/10 08:02:46;;;;;;;6.68;2.28;;;21.60;99.90;;;;;;6160325;23;20076;-82
2023/06/10 08:05:11;;;;;;;7.13;2.75;;;21.60;99.90;;;;;;6162253;23;20660;-83
2023/06/10 08:07:37;;;;;;;4.82;2.33;;;21.70;99.90;;;;;;6177268;23;20001;-83
2023/06/10 08:10:04;;;;;;;4.03;2.10;;;21.80;99.90;;;;;;6177897;23;20064;-86
2023/06/10 08:12:29;;;;;;;5.47;1.80;;;21.90;99.90;;;;;;6178951;23;20013;-81
2023/06/10 08:14:55;;;;;;;4.63;2.35;;;22.10;99.90;;;;;;6199482;23;20061;-82
2023/06/10 08:17:21;;;;;;;4.40;1.92;;;22.30;99.90;;;;;;6197810;23;20069;-82
2023/06/10 08:19:47;;;;;;;7.40;2.10;;;22.40;99.90;;;;;;6197674;23;20032;-83
2023/06/10 08:22:12;;;;;;;4.55;1.90;;;22.60;99.90;;;;;;6171629;23;20056;-82
2023/06/10 08:24:38;;;;;;;5.93;1.98;;;22.60;99.90;;;;;;6169263;23;20067;-83
2023/06/10 08:27:04;;;;;;;3.28;1.85;;;22.80;99.90;;;;;;6169553;23;20012;-82
2023/06/10 08:29:31;;;;;;;4.20;1.67;;;22.70;99.90;;;;;;6196086;23;20040;-82
2023/06/10 08:31:58;;;;;;;7.10;2.38;;;22.60;99.90;;;;;;6167051;23;20040;-85
2023/06/10 08:34:24;;;;;;;6.80;2.40;;;22.60;99.90;;;;;;6161623;23;20009;-81
2023/06/10 08:36:55;;;;;;;4.35;2.15;;;22.20;99.90;;;;;;6158750;23;20201;-82
2023/06/10 08:39:21;;;;;;;5.10;2.13;;;22.30;99.90;;;;;;6159129;23;20005;-81
2023/06/10 08:42:33;;;;;;;7.75;2.42;;;22.30;99.90;;;;;;6161150;23;20358;-82
2023/06/10 08:45:02;;;;;;;6.65;2.55;;;22.70;99.90;;;;;;6158843;23;20008;-81
2023/06/10 08:47:30;;;;;;;3.70;1.88;;;22.80;99.90;;;;;;6184232;23;20077;-84
2023/06/10 08:50:03;;;;;;;3.22;2.22;;;22.90;99.90;;;;;;6156870;23;20016;-82
2023/06/10 08:52:33;;;;;;;4.50;2.08;;;23.10;99.90;;;;;;6158132;23;20335;-82
2023/06/10 08:55:29;;;;;;;4.00;2.40;;;23.10;99.90;;;;;;6156994;23;20070;-80
2023/06/10 08:57:54;;;;;;;9.00;2.47;;;22.80;99.90;;;;;;6156600;23;20016;-81
2023/06/10 09:00:21;;;;;;;5.13;2.30;;;22.80;99.90;;;;;;6170182;23;20005;-82
2023/06/10 09:02:47;;;;;;;5.20;2.28;;;23.00;99.90;;;;;;6192227;23;20016;-82
2023/06/10 09:05:13;;;;;;;6.55;1.92;;;23.10;99.90;;;;;;6164732;23;20391;-83
2023/06/10 09:07:39;;;;;;;3.03;1.90;;;23.20;99.90;;;;;;6187194;23;20759;-82
2023/06/10 09:10:07;;;;;;;5.32;2.40;;;23.30;99.90;;;;;;6159970;23;20008;-84
2023/06/10 09:12:34;;;;;;;5.72;2.67;;;23.40;99.80;;;;;;6164860;23;20008;-83
2023/06/10 09:15:01;;;;;;;4.80;1.92;;;23.50;99.40;;;;;;6189154;23;20093;-81
2023/06/10 09:17:27;;;;;;;5.43;2.38;;;23.30;99.90;;;;;;6166527;23;20347;-85
2023/06/10 09:19:55;;;;;;;4.75;2.65;;;23.30;99.90;;;;;;6167472;23;20024;-84
2023/06/10 09:22:21;;;;;;;5.25;2.25;;;23.60;99.90;;;;;;6192507;23;20005;-86
2023/06/10 09:24:47;;;;;;;5.85;2.33;;;23.80;99.40;;;;;;6168732;23;20012;-83
2023/06/10 09:27:13;;;;;;;4.82;2.53;;;23.80;99.40;;;;;;6170138;23;20088;-82
2023/06/10 09:29:52;;;;;;;6.15;2.70;;;23.80;99.80;;;;;;6170995;23;20017;-82
2023/06/10 09:32:18;;;;;;;10.25;2.67;;;23.80;99.40;;;;;;6164284;23;20016;-82
2023/06/10 09:34:45;;;;;;;4.97;2.40;;;23.70;99.50;;;;;;6185386;23;20017;-83
2023/06/10 09:37:12;;;;;;;5.75;2.65;;;23.90;99.80;;;;;;6158200;23;20044;-84
2023/06/10 09:39:38;;;;;;;2.72;2.05;;;24.00;99.70;;;;;;6160883;23;20044;-80
2023/06/10 09:42:17;;;;;;;5.95;2.47;;;24.00;99.40;;;;;;6185267;23;20005;-81
2023/06/10 09:44:48;;;;;;;4.18;2.78;;;24.10;99.80;;;;;;6182442;23;20004;-81
2023/06/10 09:47:23;;;;;;;3.65;2.38;;;24.00;99.00;;;;;;6186059;23;20070;-84
2023/06/10 09:49:50;;;;;;;9.50;2.60;;;23.70;99.70;;;;;;6188420;23;20004;-82
2023/06/10 09:52:29;;;;;;;7.45;2.38;;;23.80;99.60;;;;;;6159025;23;20092;-83
2023/06/10 09:55:02;;;;;;;5.13;2.67;;;23.70;99.90;;;;;;6182577;23;20009;-84
2023/06/10 09:57:33;;;;;;;6.28;2.72;;;23.30;99.90;;;;;;6155181;23;20016;-80
2023/06/10 09:59:58;;;;;;;8.30;3.03;;;23.00;99.90;;;;;;6154983;23;20096;-81
2023/06/10 10:02:24;;;;;;;6.72;2.40;;;23.10;99.90;;;;;;6155465;23;20092;-83
2023/06/10 10:04:50;;;;;;;9.63;3.50;;;23.30;99.90;;;;;;6153828;23;20430;-82
2023/06/10 10:07:15;;;;;;;5.47;2.92;;;23.30;99.90;;;;;;6155730;23;20013;-82
2023/06/10 10:09:42;;;;;;;7.13;2.90;;;23.20;99.90;;;;;;6154621;23;20442;-81
2023/06/10 10:12:12;;;;;;;5.07;2.80;;;23.20;99.90;;;;;;6155240;23;20005;-83
2023/06/10 10:14:41;;;;;;;6.47;3.53;;;23.30;99.90;;;;;;6154453;23;20021;-83
2023/06/10 10:17:10;;;;;;;6.05;2.83;;;23.30;99.90;;;;;;6156373;23;20093;-80
2023/06/10 10:19:47;;;;;;;6.00;2.63;;;23.30;99.90;;;;;;6152369;23;20116;-80
2023/06/10 10:22:24;;;;;;;5.60;2.83;;;23.20;99.90;;;;;;6155291;23;20005;-82
2023/06/10 10:24:53;;;;;;;6.53;2.80;;;23.10;99.90;;;;;;6180846;23;19994;-83
2023/06/10 10:27:26;;;;;;;6.63;3.53;;;23.00;99.90;;;;;;6180833;23;20008;-80
2023/06/10 10:29:53;;;;;;;5.35;2.83;;;23.00;99.90;;;;;;6154598;23;20078;-83
2023/06/10 10:32:26;;;;;;;8.00;3.08;;;23.10;99.90;;;;;;6154825;23;20075;-83
2023/06/10 10:35:13;;;;;;;4.80;2.60;;;23.20;99.90;;;;;;6155534;23;20394;-83
2023/06/10 10:37:39;;;;;;;4.50;2.65;;;23.30;99.90;;;;;;6154493;23;20067;-80
2023/06/10 10:40:06;;;;;;;4.97;2.38;;;23.40;99.90;;;;;;6155113;23;20084;-82
2023/06/10 10:42:33;;;;;;;3.83;2.90;;;23.60;99.90;;;;;;6154261;23;20005;-79
2023/06/10 10:44:59;;;;;;;5.25;2.88;;;23.60;99.90;;;;;;6153144;23;20434;-79
2023/06/10 10:47:29;;;;;;;6.78;2.95;;;23.50;99.90;;;;;;6153230;23;20005;-83
2023/06/10 10:49:56;;;;;;;5.47;3.33;;;23.60;99.90;;;;;;6154200;23;20024;-80
2023/06/10 10:52:21;;;;;;;3.38;2.28;;;23.70;99.90;;;;;;6157548;23;20092;-82
2023/06/10 10:54:47;;;;;;;4.53;3.05;;;23.80;99.90;;;;;;6158054;23;20081;-80
2023/06/10 10:57:18;;;;;;;5.50;2.67;;;23.80;99.90;;;;;;6158895;23;20041;-82
2023/06/10 10:59:45;;;;;;;6.25;3.03;;;23.70;99.90;;;;;;6162398;23;20009;-81
2023/06/10 11:02:15;;;;;;;5.28;3.58;;;23.70;99.90;;;;;;6185682;23;20028;-80
2023/06/10 11:04:46;;;;;;;5.78;2.97;;;23.70;99.90;;;;;;6158996;23;20033;-80
2023/06/10 11:07:14;;;;;;;5.75;3.47;;;23.70;99.90;;;;;;6164667;23;20088;-82
2023/06/10 11:10:06;;;;;;;5.00;2.47;;;23.80;99.90;;;;;;6164159;23;20012;-81
2023/06/10 11:12:42;;;;;;;5.60;2.95;;;23.70;99.90;;;;;;6159514;23;20016;-84
2023/06/10 11:15:07;;;;;;;5.70;2.65;;;23.70;99.90;;;;;;6161309;23;20431;-81
2023/06/10 11:17:33;;;;;;;6.75;3.72;;;23.80;99.90;;;;;;6184655;23;20032;-80
2023/06/10 11:19:59;;;;;;;6.07;3.00;;;23.80;99.90;;;;;;6183050;23;20032;-80
2023/06/10 11:22:25;;;;;;;8.40;3.58;;;23.90;99.90;;;;;;6157624;23;20759;-80
2023/06/10 11:24:51;;;;;;;7.60;3.10;;;23.90;99.90;;;;;;6182321;23;20009;-80
2023/06/10 11:27:18;;;;;;;6.30;3.05;;;23.90;99.90;;;;;;6186018;23;20005;-82
2023/06/10 11:29:56;;;;;;;5.00;3.00;;;23.90;99.90;;;;;;6160243;23;20048;-83
2023/06/10 11:32:23;;;;;;;9.77;3.70;;;23.90;99.90;;;;;;6156870;23;20482;-79
2023/06/10 11:34:53;;;;;;;6.53;3.15;;;23.80;99.90;;;;;;6158094;23;20607;-80
2023/06/10 11:37:19;;;;;;;4.80;3.17;;;23.90;99.90;;;;;;6158072;23;20035;-80
2023/06/10 11:39:45;;;;;;;6.28;2.92;;;23.80;99.90;;;;;;6159469;23;20067;-80
2023/06/10 11:42:11;;;;;;;5.78;3.33;;;23.90;99.90;;;;;;6158704;23;20005;-79
2023/06/10 11:44:37;;;;;;;6.00;2.97;;;23.90;99.90;;;;;;6181940;23;20390;-79
2023/06/10 11:47:03;;;;;;;6.63;3.75;;;23.80;99.90;;;;;;6155054;23;20124;-79
2023/06/10 11:49:29;;;;;;;5.45;3.13;;;23.90;99.90;;;;;;6157130;23;20454;-82
2023/06/10 11:51:55;;;;;;;5.15;3.35;;;24.00;99.90;;;;;;6158769;23;20005;-81
2023/06/10 11:54:21;;;;;;;4.57;3.03;;;24.10;99.90;;;;;;6156251;23;20005;-79
2023/06/10 11:56:48;;;;;;;7.88;3.47;;;24.20;99.90;;;;;;6157034;23;20016;-80
2023/06/10 11:59:14;;;;;;;7.55;2.80;;;24.30;99.90;;;;;;6156379;23;20005;-82
2023/06/10 12:01:46;;;;;;;6.53;3.08;;;24.30;99.90;;;;;;6157635;23;20046;-80
2023/06/10 12:04:13;;;;;;;6.40;3.03;;;24.20;99.90;;;;;;6156407;23;20005;-82
2023/06/10 12:06:40;;;;;;;7.57;3.22;;;24.20;99.90;;;;;;6161361;23;20439;-82
2023/06/10 12:09:06;;;;;;;5.78;2.75;;;24.40;99.90;;;;;;6186612;23;20007;-80
2023/06/10 12:11:33;;;;;;;5.05;2.75;;;24.50;99.90;;;;;;6157172;23;20009;-80
2023/06/10 12:13:59;;;;;;;6.38;2.97;;;24.60;99.90;;;;;;6157789;23;20020;-83
2023/06/10 12:16:24;;;;;;;6.78;2.78;;;24.70;99.50;;;;;;6158259;23;20005;-82
2023/06/10 12:18:50;;;;;;;6.78;3.53;;;24.80;99.60;;;;;;6158815;23;20124;-80
2023/06/10 12:21:17;;;;;;;7.05;3.10;;;24.90;99.00;;;;;;6185573;23;20005;-84
2023/06/10 12:24:09;;;;;;;5.25;2.90;;;24.90;99.40;;;;;;6159747;23;20001;-83
2023/06/10 12:26:36;;;;;;;4.60;2.80;;;25.00;99.20;;;;;;6161546;23;20001;-82
2023/06/10 12:29:11;;;;;;;6.55;3.70;;;25.10;99.50;;;;;;6158967;23;20009;-80
2023/06/10 12:32:00;;;;;;;4.28;2.80;;;25.00;99.10;;;;;;6159855;23;20040;-81
2023/06/10 12:34:34;;;;;;;3.83;2.63;;;25.10;98.50;;;;;;6202857;23;20013;-82
2023/06/10 12:37:01;;;;;;;6.38;3.10;;;25.20;98.90;;;;;;6169225;23;20071;-79
2023/06/10 12:39:27;;;;;;;5.43;2.83;;;25.20;99.00;;;;;;6173689;23;20061;-80
2023/06/10 12:41:53;;;;;;;6.72;2.95;;;25.30;98.60;;;;;;6190000;23;20009;-83
2023/06/10 12:44:28;;;;;;;6.93;3.28;;;25.40;98.50;;;;;;6194420;23;20004;-85
2023/06/10 12:46:57;;;;;;;3.53;2.80;;;25.50;97.90;;;;;;6192781;23;20053;-79
2023/06/10 12:49:22;;;;;;;4.70;2.97;;;25.60;98.30;;;;;;6160641;23;20303;-81